Chihuahua, Mexico

1:15 PM MDT on August 31, 2015 (GMT -0600)
Gen Div P A Roberto Fierro | | Change Station
CLOSE
Current Station
Airport
Location: Chihuahua,
Elevation: 4462 ft
Nearby Weather Stations

Elev 4462 ft 28.70 °N, 105.96 °W | Updated 29 minutes ago

Scattered Clouds
Scattered Clouds
88 °F
Feels Like 88 °F
N
10
Wind Variable Wind from WNW

Today
High -- | Low -- °F
--% Chance of Precip.
Yesterday
High -- | Low -- °F
Precip. -- in
6:41 AM 7:26 PM
Waning Gibbous, 94% visible
Pressure 30.14 in
Visibility 10.0 miles
Clouds Few 3000 ft
Scattered Clouds 20000 ft
Dew Point 45 °F
Humidity 22%
Rainfall 0.00 in
Snow Depth Not available.
UV 10 out of 12
Pollen Not available.
Air Quality Not available.
Flu Activity Not available.
METAR MMCU 311846Z 30009KT 10SM FEW030 SCT200 31/07 A3014 RMK 8/101 HZY
Pressure 30.14 in
Visibility 10.0 miles
Clouds Few 3000 ft
Scattered Clouds 20000 ft
Dew Point 45 °F
Humidity 22%
Rainfall 0.00 in
Snow Depth Not available.
UV 10 out of 12
Pollen Not available.
Air Quality Not available.
Flu Activity Not available.
METAR MMCU 311846Z 30009KT 10SM FEW030 SCT200 31/07 A3014 RMK 8/101 HZY

10-Day Weather Forecast

×

Almanac

Astronomy

Aug. 31, 2015 Rise Set
Actual Time
Civil Twilight
Nautical Twilight
Astronomical Twilight
Moon
Length of Visible Light
Length of Day
Tomorrow will be .
, % of the Moon is Illuminated

Today's Extremes

Country Highs Country Lows

Community

WunderPhotos

Upload Photos

1,851,340 photos uploaded!

WunderBlogs® & News

Nearby

Air Quality

  Air Quality AQ Index Pollutant
Not available.

Snow Depth

Station Depth Elevation

Earthquake Activity

City Distance Mag. Time & Date
Minimum magnitude displayed is 2.5.

Coastal Water Temperatures

Place Temperature

Stations

Nearby Weather Stations

Station Location Temp. Windchill Dew Point Humidity Wind Precip. Elev Updated Type